Time;durP1;ratioP1;P1;durP2;ratioP2;P2;SDS_P1;SDS_P2;PMS_P1;PMS_P2;Temp;Humidity;BMP_temperature;BMP_pressure;BME280_temperature;BME280_humidity;BME280_pressure;Samples;Min_cycle;Max_cycle;Signal;HPM_P1;HPM_P2
2023/02/25 00:00:09;;;;;;;;;;;;;;;3.65;72.04;98809.00;108033;1259;124049;-83
2023/02/25 00:02:57;;;;;;;;;;;;;;;3.61;72.26;98807.34;108175;1257;72882;-83
2023/02/25 00:05:30;;;;;;;;;;;;;;;3.58;72.22;98806.09;107573;1257;124258;-83
2023/02/25 00:08:03;;;;;;;;;;;;;;;3.57;72.42;98809.00;107833;1257;60940;-84
2023/02/25 00:10:30;;;;;;;;;;;;;;;3.53;72.36;98799.20;107941;1255;75408;-84
2023/02/25 00:12:57;;;;;;;;;;;;;;;3.50;72.45;98799.48;108225;1257;124549;-84
2023/02/25 00:15:24;;;;;;;;;;;;;;;3.49;72.68;98790.09;107736;1257;71291;-84
2023/02/25 00:17:51;;;;;;;;;;;;;;;3.47;72.55;98787.97;107448;1257;124662;-85
2023/02/25 00:20:32;;;;;;;;;;;;;;;3.44;72.55;98784.98;107369;1263;60374;-83
2023/02/25 00:23:07;;;;;;;;;;;;;;;3.43;72.73;98782.86;107412;1260;75240;-84
2023/02/25 00:25:36;;;;;;;;;;;;;;;3.44;72.81;98781.34;107445;1257;66425;-83
2023/02/25 00:28:05;;;;;;;;;;;;;;;3.47;72.91;98780.86;107622;1257;73252;-82
2023/02/25 00:30:33;;;;;;;;;;;;;;;3.50;72.96;98780.08;107147;1257;125081;-83
2023/02/25 00:33:01;;;;;;;;;;;;;;;3.53;72.94;98780.81;107424;1258;59746;-82
2023/02/25 00:35:28;;;;;;;;;;;;;;;3.56;73.04;98775.84;107218;1257;124671;-83
2023/02/25 00:37:55;;;;;;;;;;;;;;;3.59;72.92;98774.17;107313;1262;65187;-83
2023/02/25 00:40:28;;;;;;;;;;;;;;;3.61;72.96;98774.58;107340;1257;71335;-84
2023/02/25 00:42:57;;;;;;;;;;;;;;;3.60;72.93;98770.91;107109;1257;124429;-84
2023/02/25 00:45:24;;;;;;;;;;;;;;;3.59;73.05;98767.60;107404;1257;61439;-84
2023/02/25 00:47:59;;;;;;;;;;;;;;;3.59;73.00;98765.86;107389;1260;122630;-84
2023/02/25 00:50:28;;;;;;;;;;;;;;;3.58;72.99;98765.15;107244;1259;65769;-84
2023/02/25 00:52:56;;;;;;;;;;;;;;;3.57;73.06;98757.67;107728;1257;124185;-84
2023/02/25 00:55:23;;;;;;;;;;;;;;;3.55;72.93;98759.02;108316;1257;61378;-83
2023/02/25 00:57:53;;;;;;;;;;;;;;;3.49;73.10;98755.44;107990;1260;61121;-83
2023/02/25 01:00:27;;;;;;;;;;;;;;;3.44;73.08;98753.41;107480;1259;124246;-83
2023/02/25 01:02:54;;;;;;;;;;;;;;;3.41;73.21;98746.58;107672;1258;65840;-83
2023/02/25 01:05:21;;;;;;;;;;;;;;;3.37;73.25;98741.82;107813;1260;124117;-90
2023/02/25 01:07:56;;;;;;;;;;;;;;;3.36;73.35;98740.40;108150;1256;60146;-90
2023/02/25 01:10:23;;;;;;;;;;;;;;;3.35;73.47;98738.98;107792;1257;60860;-90
2023/02/25 01:12:50;;;;;;;;;;;;;;;3.34;73.57;98738.27;108041;1257;123874;-90
2023/02/25 01:15:17;;;;;;;;;;;;;;;3.33;73.67;98737.21;108050;1256;68199;-90
2023/02/25 01:17:44;;;;;;;;;;;;;;;3.33;73.60;98737.40;107433;1256;125433;-90
2023/02/25 01:20:18;;;;;;;;;;;;;;;3.35;73.74;98736.05;107706;1256;60448;-89
2023/02/25 01:22:51;;;;;;;;;;;;;;;3.37;73.89;98736.44;107465;1257;62351;-89
2023/02/25 01:25:25;;;;;;;;;;;;;;;3.37;73.91;98729.68;107491;1257;124218;-89
2023/02/25 01:27:59;;;;;;;;;;;;;;;3.37;74.01;98728.13;107290;1258;67163;-89
2023/02/25 01:30:46;;;;;;;;;;;;;;;3.39;73.89;98727.83;107436;1256;124837;-89
2023/02/25 01:33:32;;;;;;;;;;;;;;;3.38;73.89;98724.48;107557;1258;60941;-89
2023/02/25 01:36:01;;;;;;;;;;;;;;;3.37;73.93;98722.91;107586;1257;125020;-89
2023/02/25 01:38:43;;;;;;;;;;;;;;;3.36;74.06;98719.10;107521;1257;72098;-89
2023/02/25 01:41:16;;;;;;;;;;;;;;;3.36;74.01;98712.66;107669;1257;125158;-89
2023/02/25 01:44:04;;;;;;;;;;;;;;;3.37;74.10;98714.94;107748;1256;71374;-83
2023/02/25 01:46:31;;;;;;;;;;;;;;;3.40;74.11;98707.37;107934;1257;61423;-83
2023/02/25 01:49:17;;;;;;;;;;;;;;;3.44;74.21;98705.91;107743;1261;124454;-84
2023/02/25 01:51:46;;;;;;;;;;;;;;;3.48;74.20;98700.25;108054;1257;72524;-84
2023/02/25 01:54:13;;;;;;;;;;;;;;;3.50;74.09;98699.41;108065;1257;124861;-84
2023/02/25 01:56:41;;;;;;;;;;;;;;;3.53;74.16;98697.58;107588;1257;72677;-84
2023/02/25 01:59:10;;;;;;;;;;;;;;;3.55;74.18;98697.08;107489;1256;124578;-84
2023/02/25 02:01:37;;;;;;;;;;;;;;;3.56;74.23;98694.19;107720;1257;62172;-84
2023/02/25 02:04:14;;;;;;;;;;;;;;;3.57;74.12;98689.52;107695;1257;73409;-83
2023/02/25 02:06:42;;;;;;;;;;;;;;;3.56;74.14;98688.45;107911;1257;124149;-83
2023/02/25 02:09:18;;;;;;;;;;;;;;;3.58;74.12;98686.23;107912;1257;72819;-84
2023/02/25 02:11:45;;;;;;;;;;;;;;;3.57;74.19;98685.70;107545;1257;123720;-84
2023/02/25 02:14:18;;;;;;;;;;;;;;;3.58;74.12;98681.20;107593;1257;61365;-84
2023/02/25 02:17:06;;;;;;;;;;;;;;;3.55;74.06;98679.92;107698;1257;73948;-83
2023/02/25 02:19:33;;;;;;;;;;;;;;;3.48;74.01;98680.32;107865;1258;67292;-84
2023/02/25 02:22:15;;;;;;;;;;;;;;;3.37;73.95;98677.48;107638;1256;70383;-83
2023/02/25 02:25:01;;;;;;;;;;;;;;;3.24;73.89;98677.05;107451;1256;124265;-83
2023/02/25 02:27:52;;;;;;;;;;;;;;;3.16;74.03;98676.70;107729;1256;59857;-91
2023/02/25 02:30:20;;;;;;;;;;;;;;;3.11;74.26;98676.43;107402;1257;123815;-84
2023/02/25 02:32:52;;;;;;;;;;;;;;;3.11;74.39;98673.33;107592;1256;65400;-89
2023/02/25 02:35:37;;;;;;;;;;;;;;;3.10;74.60;98671.73;107433;1257;123889;-91
2023/02/25 02:38:11;;;;;;;;;;;;;;;3.11;74.68;98670.89;107512;1256;60430;-90
2023/02/25 02:41:04;;;;;;;;;;;;;;;3.11;74.75;98668.83;107848;1257;60508;-83
2023/02/25 02:43:49;;;;;;;;;;;;;;;3.10;74.76;98666.89;107676;1260;73381;-84
2023/02/25 02:46:16;;;;;;;;;;;;;;;3.06;74.63;98665.42;107655;1257;66855;-84
2023/02/25 02:48:55;;;;;;;;;;;;;;;3.04;74.77;98660.88;108036;1258;126088;-84
2023/02/25 02:51:25;;;;;;;;;;;;;;;3.03;74.84;98658.59;107403;1260;60037;-84
2023/02/25 02:53:54;;;;;;;;;;;;;;;3.04;75.08;98655.66;107517;1258;125869;-83
2023/02/25 02:56:23;;;;;;;;;;;;;;;3.06;75.05;98651.38;107937;1257;73344;-83
2023/02/25 02:58:57;;;;;;;;;;;;;;;3.10;75.26;98652.16;107130;1256;65548;-83
2023/02/25 03:01:28;;;;;;;;;;;;;;;3.13;75.24;98652.39;107123;1261;125031;-84
2023/02/25 03:03:58;;;;;;;;;;;;;;;3.15;75.31;98646.88;107539;1255;61216;-84
2023/02/25 03:06:41;;;;;;;;;;;;;;;3.18;75.25;98649.52;107388;1257;124822;-84
2023/02/25 03:09:09;;;;;;;;;;;;;;;3.20;75.34;98645.07;107405;1257;75651;-84
2023/02/25 03:11:43;;;;;;;;;;;;;;;3.23;75.45;98648.79;107297;1256;124816;-83
2023/02/25 03:14:22;;;;;;;;;;;;;;;3.26;75.41;98644.52;107276;1255;71384;-84
2023/02/25 03:17:09;;;;;;;;;;;;;;;3.30;75.41;98640.95;107354;1256;61072;-83
2023/02/25 03:19:51;;;;;;;;;;;;;;;3.34;75.48;98637.38;107525;1257;59567;-84
2023/02/25 03:22:26;;;;;;;;;;;;;;;3.38;75.65;98643.19;107520;1257;74517;-84
2023/02/25 03:25:05;;;;;;;;;;;;;;;3.42;75.61;98642.75;107542;1255;124494;-84
2023/02/25 03:27:36;;;;;;;;;;;;;;;3.45;75.69;98641.06;108404;1256;72307;-84
2023/02/25 03:30:21;;;;;;;;;;;;;;;3.48;75.68;98645.64;107690;1257;124655;-84
2023/02/25 03:32:51;;;;;;;;;;;;;;;3.49;75.66;98639.23;107844;1257;60263;-84
2023/02/25 03:35:40;;;;;;;;;;;;;;;3.51;75.62;98640.50;107881;1256;125172;-84
2023/02/25 03:38:08;;;;;;;;;;;;;;;3.55;75.73;98643.33;107786;1256;66887;-84
2023/02/25 03:40:35;;;;;;;;;;;;;;;3.57;75.84;98643.21;107634;1256;73080;-83
2023/02/25 03:43:11;;;;;;;;;;;;;;;3.59;75.82;98642.56;107348;1257;125164;-84
2023/02/25 03:45:41;;;;;;;;;;;;;;;3.64;75.93;98642.83;107657;1257;60071;-84
2023/02/25 03:48:10;;;;;;;;;;;;;;;3.68;75.80;98643.92;107609;1256;124402;-84
2023/02/25 03:50:58;;;;;;;;;;;;;;;3.69;75.70;98642.73;107832;1257;67349;-84
2023/02/25 03:53:25;;;;;;;;;;;;;;;3.72;75.90;98638.80;107632;1257;124604;-83
2023/02/25 03:55:53;;;;;;;;;;;;;;;3.76;75.92;98643.04;107632;1258;59917;-85
2023/02/25 03:58:32;;;;;;;;;;;;;;;3.79;75.93;98640.83;107508;1256;61293;-84
2023/02/25 04:01:07;;;;;;;;;;;;;;;3.84;75.95;98643.53;107146;1262;124977;-85
2023/02/25 04:03:42;;;;;;;;;;;;;;;3.87;75.89;98642.88;107446;1257;65470;-85
2023/02/25 04:06:19;;;;;;;;;;;;;;;3.90;76.01;98642.77;107571;1257;124519;-84
2023/02/25 04:08:46;;;;;;;;;;;;;;;3.96;76.00;98641.14;107613;1256;60547;-84
2023/02/25 04:11:22;;;;;;;;;;;;;;;3.99;76.06;98637.55;107238;1255;125288;-85
2023/02/25 04:13:49;;;;;;;;;;;;;;;3.99;75.83;98635.12;107269;1256;74511;-85
2023/02/25 04:16:16;;;;;;;;;;;;;;;4.03;75.94;98636.58;107691;1256;66882;-84
2023/02/25 04:18:43;;;;;;;;;;;;;;;4.07;75.92;98638.02;107353;1259;124673;-85
2023/02/25 04:21:21;;;;;;;;;;;;;;;4.08;75.92;98636.15;107388;1258;60071;-84
2023/02/25 04:23:49;;;;;;;;;;;;;;;4.09;75.74;98633.36;107240;1257;124773;-85
2023/02/25 04:26:16;;;;;;;;;;;;;;;4.10;75.86;98632.52;107893;1257;74602;-85
2023/02/25 04:28:43;;;;;;;;;;;;;;;4.08;75.72;98633.02;107990;1256;67667;-84
2023/02/25 04:31:10;;;;;;;;;;;;;;;4.05;75.65;98632.45;107306;1256;123829;-84
2023/02/25 04:33:59;;;;;;;;;;;;;;;4.05;75.87;98634.19;107314;1256;59373;-84
2023/02/25 04:36:26;;;;;;;;;;;;;;;4.01;75.52;98632.20;107457;1257;123710;-85
2023/02/25 04:39:00;;;;;;;;;;;;;;;3.97;75.72;98634.39;107648;1257;74449;-85
2023/02/25 04:41:29;;;;;;;;;;;;;;;3.92;75.48;98636.04;107430;1256;124548;-84
2023/02/25 04:43:57;;;;;;;;;;;;;;;3.87;75.57;98634.39;107314;1260;72836;-83
2023/02/25 04:46:26;;;;;;;;;;;;;;;3.84;75.53;98633.81;107568;1257;60968;-83
2023/02/25 04:48:53;;;;;;;;;;;;;;;3.81;75.67;98632.38;107345;1258;123786;-83
2023/02/25 04:51:20;;;;;;;;;;;;;;;3.75;75.54;98633.66;107304;1259;73836;-90
2023/02/25 04:53:47;;;;;;;;;;;;;;;3.69;75.60;98631.82;107103;1257;124645;-91
2023/02/25 04:56:20;;;;;;;;;;;;;;;3.66;75.72;98630.18;107173;1257;72891;-84
2023/02/25 04:58:57;;;;;;;;;;;;;;;3.64;75.68;98629.29;107292;1256;60969;-83
2023/02/25 05:01:24;;;;;;;;;;;;;;;3.60;75.66;98627.99;107186;1257;124058;-84
2023/02/25 05:03:55;;;;;;;;;;;;;;;3.56;75.60;98625.14;107379;1257;73925;-84
2023/02/25 05:06:38;;;;;;;;;;;;;;;3.54;75.75;98628.40;107271;1257;123754;-84
2023/02/25 05:09:09;;;;;;;;;;;;;;;3.53;75.85;98624.04;107147;1263;72520;-91
2023/02/25 05:11:36;;;;;;;;;;;;;;;3.50;75.85;98625.39;107491;1257;124597;-90
2023/02/25 05:14:09;;;;;;;;;;;;;;;3.49;75.95;98628.66;107660;1257;60971;-90
2023/02/25 05:16:44;;;;;;;;;;;;;;;3.48;75.98;98628.83;107224;1257;74728;-90
2023/02/25 05:19:21;;;;;;;;;;;;;;;3.48;75.89;98627.95;107367;1256;124129;-91
2023/02/25 05:21:50;;;;;;;;;;;;;;;3.46;75.97;98629.14;107466;1256;72134;-84
2023/02/25 05:24:30;;;;;;;;;;;;;;;3.46;76.02;98625.49;107355;1257;124160;-91
2023/02/25 05:27:09;;;;;;;;;;;;;;;3.45;75.98;98624.96;107433;1257;61488;-84
2023/02/25 05:29:36;;;;;;;;;;;;;;;3.43;75.98;98626.81;107081;1257;124161;-84
2023/02/25 05:32:03;;;;;;;;;;;;;;;3.39;75.97;98625.35;107459;1257;67084;-84
2023/02/25 05:34:37;;;;;;;;;;;;;;;3.36;76.00;98626.85;107691;1257;71406;-84
2023/02/25 05:37:04;;;;;;;;;;;;;;;3.32;76.04;98630.07;107407;1262;124500;-84
2023/02/25 05:39:37;;;;;;;;;;;;;;;3.30;76.00;98630.56;107286;1257;59641;-87
2023/02/25 05:42:27;;;;;;;;;;;;;;;3.27;76.06;98631.36;107161;1256;125277;-87
2023/02/25 05:45:06;;;;;;;;;;;;;;;3.23;76.15;98634.05;106960;1259;65765;-87
2023/02/25 05:47:39;;;;;;;;;;;;;;;3.23;76.15;98635.25;107024;1259;125197;-86
2023/02/25 05:50:06;;;;;;;;;;;;;;;3.22;76.28;98638.36;107098;1259;60397;-86
2023/02/25 05:52:33;;;;;;;;;;;;;;;3.20;76.32;98633.13;106905;1260;60326;-82
2023/02/25 05:55:01;;;;;;;;;;;;;;;3.22;76.39;98635.95;107029;1259;125024;-83
2023/02/25 05:57:28;;;;;;;;;;;;;;;3.25;76.27;98634.27;107303;1260;67542;-82
2023/02/25 06:00:08;;;;;;;;;;;;;;;3.25;76.29;98637.23;107183;1260;124544;-83
2023/02/25 06:03:06;;;;;;;;;;;;;;;3.28;76.32;98636.92;107130;1262;61376;-92
2023/02/25 06:05:41;;;;;;;;;;;;;;;3.30;76.51;98635.75;107229;1259;125511;-91
2023/02/25 06:08:11;;;;;;;;;;;;;;;3.30;76.45;98642.87;107087;1260;74027;-89
2023/02/25 06:10:51;;;;;;;;;;;;;;;3.31;76.48;98646.00;107010;1259;67604;-92
2023/02/25 06:13:30;;;;;;;;;;;;;;;3.34;76.54;98646.40;106982;1264;124512;-89
2023/02/25 06:15:58;;;;;;;;;;;;;;;3.37;76.46;98646.82;107386;1256;61252;-88
2023/02/25 06:18:25;;;;;;;;;;;;;;;3.40;76.47;98650.86;107571;1259;124521;-89
2023/02/25 06:20:54;;;;;;;;;;;;;;;3.46;76.63;98650.11;107815;1257;73450;-88
2023/02/25 06:23:29;;;;;;;;;;;;;;;3.52;76.68;98651.77;107196;1256;124815;-88
2023/02/25 06:25:56;;;;;;;;;;;;;;;3.59;76.60;98654.35;107176;1262;72455;-88
2023/02/25 06:28:24;;;;;;;;;;;;;;;3.63;76.40;98656.15;107572;1259;61206;-87
2023/02/25 06:31:04;;;;;;;;;;;;;;;3.63;76.37;98656.34;107400;1262;124670;-88
2023/02/25 06:33:35;;;;;;;;;;;;;;;3.65;76.30;98659.14;107478;1258;75225;-88
2023/02/25 06:36:14;;;;;;;;;;;;;;;3.67;76.37;98657.28;107131;1256;124657;-90
2023/02/25 06:38:42;;;;;;;;;;;;;;;3.72;76.33;98659.27;107451;1257;71488;-88
2023/02/25 06:41:12;;;;;;;;;;;;;;;3.72;76.20;98660.31;107428;1256;125236;-82
2023/02/25 06:43:40;;;;;;;;;;;;;;;3.72;76.22;98662.90;108098;1260;59660;-82
2023/02/25 06:46:08;;;;;;;;;;;;;;;3.76;76.25;98662.30;107630;1259;74045;-82
2023/02/25 06:48:35;;;;;;;;;;;;;;;3.82;76.33;98665.18;107807;1256;125312;-83
2023/02/25 06:51:11;;;;;;;;;;;;;;;3.88;76.35;98661.46;107640;1258;71464;-85
2023/02/25 06:53:51;;;;;;;;;;;;;;;3.94;76.36;98668.52;107853;1256;125578;-85
2023/02/25 06:56:20;;;;;;;;;;;;;;;4.00;76.22;98670.89;107405;1257;61084;-86
2023/02/25 06:58:49;;;;;;;;;;;;;;;4.06;76.07;98677.94;107600;1257;73441;-84
2023/02/25 07:01:16;;;;;;;;;;;;;;;4.13;76.15;98678.58;107474;1256;124181;-85
2023/02/25 07:03:44;;;;;;;;;;;;;;;4.23;76.24;98674.73;107713;1256;72224;-82
2023/02/25 07:06:21;;;;;;;;;;;;;;;4.31;76.05;98676.80;108643;1256;124334;-84
2023/02/25 07:08:50;;;;;;;;;;;;;;;4.40;75.96;98677.98;107566;1256;59981;-83
2023/02/25 07:11:36;;;;;;;;;;;;;;;4.43;75.55;98681.85;107657;1257;124066;-83
2023/02/25 07:14:15;;;;;;;;;;;;;;;4.41;75.55;98679.91;107676;1257;65604;-82
2023/02/25 07:16:44;;;;;;;;;;;;;;;4.44;75.36;98681.00;107386;1257;72742;-83
2023/02/25 07:19:13;;;;;;;;;;;;;;;4.50;75.42;98681.62;107276;1256;124159;-85
2023/02/25 07:21:48;;;;;;;;;;;;;;;4.53;75.34;98681.84;107410;1255;60318;-85
2023/02/25 07:24:28;;;;;;;;;;;;;;;4.54;75.29;98684.63;107514;1257;125275;-84
2023/02/25 07:26:55;;;;;;;;;;;;;;;4.59;75.22;98684.71;107802;1256;66174;-83
2023/02/25 07:29:30;;;;;;;;;;;;;;;4.60;75.01;98690.98;107989;1255;124087;-90
2023/02/25 07:32:12;;;;;;;;;;;;;;;4.58;74.96;98693.91;108497;1255;59615;-90
2023/02/25 07:34:41;;;;;;;;;;;;;;;4.60;74.88;98698.29;107957;1256;61820;-89
2023/02/25 07:40:25;;;;;;;;;;;;;;;4.57;74.78;98701.71;107685;1255;65763;-88
2023/02/25 07:42:53;;;;;;;;;;;;;;;4.63;75.09;98699.55;107472;1258;124535;-88
2023/02/25 07:45:21;;;;;;;;;;;;;;;4.71;74.82;98699.50;107217;1256;61285;-89
2023/02/25 07:48:08;;;;;;;;;;;;;;;4.73;74.67;98702.65;107432;1255;124730;-91
2023/02/25 07:50:48;;;;;;;;;;;;;;;4.77;74.77;98705.33;107660;1257;75723;-94
2023/02/25 07:53:33;;;;;;;;;;;;;;;4.87;74.90;98705.12;107414;1256;124820;-88
2023/02/25 07:56:04;;;;;;;;;;;;;;;4.97;74.76;98704.91;107247;1259;72668;-93
2023/02/25 07:58:32;;;;;;;;;;;;;;;5.04;74.65;98707.63;107772;1256;61018;-89
2023/02/25 08:01:10;;;;;;;;;;;;;;;5.11;74.50;98708.24;107554;1257;124198;-86
2023/02/25 08:03:47;;;;;;;;;;;;;;;5.18;74.54;98710.59;107498;1256;74657;-88
2023/02/25 08:06:34;;;;;;;;;;;;;;;5.24;74.36;98709.83;107164;1256;123984;-90
2023/02/25 08:09:04;;;;;;;;;;;;;;;5.33;74.27;98710.63;107539;1257;72712;-89
2023/02/25 08:11:37;;;;;;;;;;;;;;;5.38;74.18;98710.87;107822;1257;124012;-87
2023/02/25 08:14:11;;;;;;;;;;;;;;;5.44;74.02;98712.86;107590;1255;59554;-86
2023/02/25 08:16:38;;;;;;;;;;;;;;;5.48;74.03;98713.44;107301;1255;73381;-88
2023/02/25 08:19:05;;;;;;;;;;;;;;;5.44;73.74;98712.68;107156;1259;123981;-88
2023/02/25 08:21:41;;;;;;;;;;;;;;;5.43;73.89;98716.50;107167;1257;73183;-89
2023/02/25 08:24:12;;;;;;;;;;;;;;;5.42;73.79;98719.79;107090;1256;124013;-81
2023/02/25 08:26:39;;;;;;;;;;;;;;;5.34;73.73;98718.46;108144;1256;60773;-82
2023/02/25 08:29:06;;;;;;;;;;;;;;;5.28;73.69;98725.16;107960;1256;74697;-83
2023/02/25 08:31:33;;;;;;;;;;;;;;;5.15;73.46;98726.90;108169;1256;124436;-83
2023/02/25 08:34:00;;;;;;;;;;;;;;;5.06;73.65;98731.13;108243;1256;72562;-83
2023/02/25 08:36:28;;;;;;;;;;;;;;;5.04;73.78;98731.79;107853;1256;124580;-83
2023/02/25 08:38:58;;;;;;;;;;;;;;;5.05;73.97;98737.36;107954;1256;61248;-83
2023/02/25 08:41:25;;;;;;;;;;;;;;;5.08;73.91;98739.48;107814;1257;125136;-83
2023/02/25 08:43:56;;;;;;;;;;;;;;;5.12;73.96;98740.58;108844;1256;67113;-84
2023/02/25 08:46:35;;;;;;;;;;;;;;;5.17;74.18;98735.27;107712;1255;71399;-84
2023/02/25 08:49:05;;;;;;;;;;;;;;;5.31;74.15;98740.00;107959;1256;124109;-85
2023/02/25 08:51:33;;;;;;;;;;;;;;;5.44;74.04;98741.71;108181;1256;60322;-86
2023/02/25 08:54:05;;;;;;;;;;;;;;;5.51;73.85;98744.25;107920;1259;124434;-85
2023/02/25 08:56:34;;;;;;;;;;;;;;;5.51;73.74;98745.30;108147;1257;67050;-83
2023/02/25 08:59:03;;;;;;;;;;;;;;;5.59;73.86;98745.05;108075;1257;72799;-89
2023/02/25 09:01:44;;;;;;;;;;;;;;;5.69;73.70;98749.34;107782;1254;124072;-92
2023/02/25 09:04:47;;;;;;;;;;;;;;;5.59;73.21;98751.65;107438;1259;62179;-87
2023/02/25 09:07:15;;;;;;;;;;;;;;;5.46;73.29;98756.19;107383;1259;124741;-93
2023/02/25 09:09:51;;;;;;;;;;;;;;;5.46;73.76;98757.94;107738;1262;67128;-93
2023/02/25 09:12:18;;;;;;;;;;;;;;;5.50;73.71;98765.11;107377;1260;125245;-89
2023/02/25 09:14:52;;;;;;;;;;;;;;;5.47;73.61;98768.58;107237;1259;60204;-94
2023/02/25 09:17:23;;;;;;;;;;;;;;;5.45;73.66;98770.27;103695;1259;4819820;-90
2023/02/25 09:20:11;;;;;;;;;;;;;;;;;;;;;
2023/02/25 09:23:10;;;;;;;;;;;;;;;5.19;73.60;98779.99;107576;1259;67098;-92
2023/02/25 09:25:49;;;;;;;;;;;;;;;5.21;73.96;98780.70;107595;1262;123868;-89
2023/02/25 09:28:31;;;;;;;;;;;;;;;5.31;74.15;98784.16;107520;1259;60829;-81
2023/02/25 09:31:03;;;;;;;;;;;;;;;5.38;74.19;98785.32;107635;1259;124222;-82
2023/02/25 09:33:34;;;;;;;;;;;;;;;5.38;74.04;98786.01;107680;1259;74810;-79
2023/02/25 09:36:08;;;;;;;;;;;;;;;5.30;73.83;98789.19;107832;1256;124625;-80
2023/02/25 09:38:36;;;;;;;;;;;;;;;5.16;73.58;98787.60;107984;1256;70633;-81
2023/02/25 09:41:06;;;;;;;;;;;;;;;5.01;73.80;98789.63;107805;1257;62159;-87
2023/02/25 09:43:38;;;;;;;;;;;;;;;4.99;74.13;98793.44;107987;1257;124597;-87
2023/02/25 09:46:06;;;;;;;;;;;;;;;5.01;74.44;98795.02;108010;1257;73518;-86
2023/02/25 09:48:33;;;;;;;;;;;;;;;5.03;74.24;98795.73;107925;1257;125001;-85
2023/02/25 09:51:04;;;;;;;;;;;;;;;5.01;74.26;98799.02;108120;1255;73212;-86
2023/02/25 09:53:33;;;;;;;;;;;;;;;5.06;74.50;98802.05;107598;1256;124098;-86
2023/02/25 09:56:19;;;;;;;;;;;;;;;5.19;74.59;98803.29;107526;1256;61229;-87
2023/02/25 09:58:49;;;;;;;;;;;;;;;5.31;74.31;98808.50;107745;1255;78133;-86
2023/02/25 10:01:33;;;;;;;;;;;;;;;5.33;74.37;98812.21;107594;1255;124062;-87
2023/02/25 10:04:03;;;;;;;;;;;;;;;5.41;74.39;98817.54;107695;1256;72852;-88
2023/02/25 10:06:41;;;;;;;;;;;;;;;5.53;74.49;98821.17;107543;1256;124878;-88
2023/02/25 10:09:36;;;;;;;;;;;;;;;5.58;74.21;98826.47;107521;1257;60356;-88
2023/02/25 10:12:22;;;;;;;;;;;;;;;5.49;74.12;98825.66;107613;1256;124824;-85
2023/02/25 10:15:13;;;;;;;;;;;;;;;5.54;74.40;98827.63;107570;1256;67463;-85
2023/02/25 10:18:01;;;;;;;;;;;;;;;5.59;74.15;98835.18;107564;1256;124859;-85
2023/02/25 10:20:47;;;;;;;;;;;;;;;5.50;74.04;98834.03;107766;1257;59970;-85
2023/02/25 10:23:29;;;;;;;;;;;;;;;5.53;74.16;98834.40;108234;1256;59653;-86
2023/02/25 10:26:02;;;;;;;;;;;;;;;5.46;74.14;98841.60;107946;1259;73440;-86
2023/02/25 10:28:29;;;;;;;;;;;;;;;5.29;74.26;98843.61;107967;1261;67736;-85
2023/02/25 10:31:17;;;;;;;;;;;;;;;5.16;74.86;98853.15;107738;1257;124165;-85
2023/02/25 10:33:45;;;;;;;;;;;;;;;5.01;74.94;98863.14;107956;1257;59911;-84
2023/02/25 10:36:19;;;;;;;;;;;;;;;4.75;75.19;98864.81;107547;1257;124886;-86
2023/02/25 10:38:50;;;;;;;;;;;;;;;4.64;75.56;98861.46;107949;1256;73455;-85
2023/02/25 10:41:17;;;;;;;;;;;;;;;4.61;75.80;98868.70;107945;1257;67599;-82
2023/02/25 10:43:44;;;;;;;;;;;;;;;4.50;76.31;98869.88;107663;1256;124677;-80
2023/02/25 10:46:14;;;;;;;;;;;;;;;4.39;76.80;98870.20;107642;1257;59563;-81
2023/02/25 10:48:42;;;;;;;;;;;;;;;4.30;76.77;98880.27;107859;1257;125172;-80
2023/02/25 10:51:11;;;;;;;;;;;;;;;4.19;77.05;98879.52;107807;1258;72755;-80
2023/02/25 10:53:39;;;;;;;;;;;;;;;4.14;77.35;98883.77;108057;1259;125933;-80
2023/02/25 10:56:32;;;;;;;;;;;;;;;4.10;77.37;98887.85;107849;1261;72723;-80
2023/02/25 10:59:03;;;;;;;;;;;;;;;4.10;77.86;98890.10;107809;1261;60087;-86
2023/02/25 11:01:38;;;;;;;;;;;;;;;4.13;77.76;98895.36;107331;1255;124759;-85
2023/02/25 11:04:08;;;;;;;;;;;;;;;4.10;77.58;98898.27;107302;1255;74480;-81
2023/02/25 11:06:36;;;;;;;;;;;;;;;4.08;77.96;98905.70;107415;1256;125001;-81
2023/02/25 11:09:18;;;;;;;;;;;;;;;4.08;77.97;98907.42;107752;1257;73156;-79
2023/02/25 11:11:58;;;;;;;;;;;;;;;3.96;78.08;98912.23;107894;1256;125601;-88
2023/02/25 11:14:30;;;;;;;;;;;;;;;3.99;78.15;98913.48;108040;1255;59777;-87
2023/02/25 11:17:04;;;;;;;;;;;;;;;4.01;78.46;98910.94;108827;1256;74643;-86
2023/02/25 11:19:32;;;;;;;;;;;;;;;4.15;78.91;98915.38;108345;1256;125023;-87
2023/02/25 11:21:59;;;;;;;;;;;;;;;4.16;78.33;98914.88;107600;1256;72684;-87
2023/02/25 11:24:30;;;;;;;;;;;;;;;4.07;78.19;98920.77;107347;1256;124784;-86
2023/02/25 11:27:03;;;;;;;;;;;;;;;4.03;78.34;98925.20;107819;1256;59489;-89
2023/02/25 11:29:31;;;;;;;;;;;;;;;4.00;78.30;98925.84;107688;1256;124758;-82
2023/02/25 11:31:59;;;;;;;;;;;;;;;4.04;78.88;98936.15;107604;1259;65801;-81
2023/02/25 11:34:45;;;;;;;;;;;;;;;4.11;78.97;98925.20;107533;1256;71452;-87
2023/02/25 11:37:42;;;;;;;;;;;;;;;4.28;79.25;98938.41;107598;1257;125106;-87
2023/02/25 11:40:28;;;;;;;;;;;;;;;4.35;79.10;98936.30;107180;1265;61395;-89
2023/02/25 11:43:05;;;;;;;;;;;;;;;4.53;79.23;98937.34;107031;1265;124689;-87
2023/02/25 11:45:51;;;;;;;;;;;;;;;4.61;78.86;98947.74;107218;1266;67111;-90
2023/02/25 11:48:20;;;;;;;;;;;;;;;4.42;78.15;98960.04;107075;1264;124955;-86
2023/02/25 11:50:56;;;;;;;;;;;;;;;4.19;78.31;98963.73;107041;1267;62207;-89
2023/02/25 11:53:33;;;;;;;;;;;;;;;3.96;79.22;98958.89;107156;1269;59754;-88
2023/02/25 11:56:12;;;;;;;;;;;;;;;3.96;79.47;98966.52;107035;1265;74306;-86
2023/02/25 11:58:46;;;;;;;;;;;;;;;3.93;79.61;98969.59;107212;1264;65805;-88
2023/02/25 12:01:31;;;;;;;;;;;;;;;3.68;80.12;98984.95;107012;1265;125118;-83
2023/02/25 12:04:16;;;;;;;;;;;;;;;3.31;80.06;98984.91;107163;1266;61041;-83
2023/02/25 12:06:52;;;;;;;;;;;;;;;3.14;80.39;98992.44;107409;1265;124596;-82
2023/02/25 12:09:20;;;;;;;;;;;;;;;3.04;80.86;99004.46;107499;1268;73496;-82
2023/02/25 12:12:11;;;;;;;;;;;;;;;2.91;81.15;99012.95;107228;1265;124772;-82
2023/02/25 12:14:38;;;;;;;;;;;;;;;2.65;82.98;99004.97;107084;1265;72759;-85
2023/02/25 12:17:24;;;;;;;;;;;;;;;2.53;83.56;99011.54;107500;1262;61309;-82
2023/02/25 12:19:56;;;;;;;;;;;;;;;2.45;84.10;99012.02;107736;1256;124577;-82
2023/02/25 12:22:26;;;;;;;;;;;;;;;2.42;84.44;99017.63;107682;1257;73179;-83
2023/02/25 12:25:25;;;;;;;;;;;;;;;2.36;84.35;99023.34;108051;1256;124829;-87
2023/02/25 12:28:06;;;;;;;;;;;;;;;2.34;84.73;99026.92;108221;1256;71462;-89
2023/02/25 12:30:35;;;;;;;;;;;;;;;2.23;84.69;99041.63;108042;1256;124686;-90
2023/02/25 12:33:11;;;;;;;;;;;;;;;2.16;84.62;99042.46;108245;1257;59303;-89
2023/02/25 12:36:02;;;;;;;;;;;;;;;2.14;84.76;99042.92;107931;1256;73657;-89
2023/02/25 12:38:34;;;;;;;;;;;;;;;2.21;85.06;99043.64;107830;1259;67470;-92
2023/02/25 12:41:18;;;;;;;;;;;;;;;2.21;85.00;99046.25;107728;1257;73008;-88
2023/02/25 12:43:45;;;;;;;;;;;;;;;2.16;85.43;99062.19;107590;1256;124533;-87
2023/02/25 12:49:42;;;;;;;;;;;;;;;2.15;85.61;99068.59;107405;1256;124934;-92
2023/02/25 12:52:13;;;;;;;;;;;;;;;2.23;85.84;99068.48;107795;1257;65241;-84
2023/02/25 12:54:51;;;;;;;;;;;;;;;2.31;85.95;99082.75;107464;1259;124942;-83
2023/02/25 12:57:38;;;;;;;;;;;;;;;2.31;85.83;99075.30;107267;1256;59901;-90
2023/02/25 13:00:09;;;;;;;;;;;;;;;2.34;85.87;99084.58;107660;1256;124790;-90
2023/02/25 13:02:36;;;;;;;;;;;;;;;2.37;85.91;99092.61;108158;1256;75860;-81
2023/02/25 13:05:16;;;;;;;;;;;;;;;2.41;86.03;99092.23;107864;1261;65691;-82
2023/02/25 13:08:05;;;;;;;;;;;;;;;2.38;86.37;99105.64;107725;1256;124609;-83
2023/02/25 13:10:37;;;;;;;;;;;;;;;2.16;87.21;99119.31;107752;1256;62287;-82
2023/02/25 13:13:24;;;;;;;;;;;;;;;1.97;87.38;99124.59;107378;1260;124769;-82
2023/02/25 13:16:17;;;;;;;;;;;;;;;1.89;87.83;99132.59;107280;1256;74678;-89
2023/02/25 13:19:07;;;;;;;;;;;;;;;1.82;87.70;99131.48;107486;1256;124737;-88
2023/02/25 13:21:42;;;;;;;;;;;;;;;1.83;87.75;99125.48;107051;1259;72469;-82
2023/02/25 13:24:16;;;;;;;;;;;;;;;1.87;87.85;99129.59;107055;1257;124795;-83